Time;durP1;ratioP1;P1;durP2;ratioP2;P2;SDS_P1;SDS_P2;PMS_P1;PMS_P2;Temp;Humidity;BMP_temperature;BMP_pressure;BME280_temperature;BME280_humidity;BME280_pressure;Samples;Min_cycle;Max_cycle;Signal;HPM_P1;HPM_P2
2021/03/06 00:01:37;;;;;;;14.87;7.15;;;;;;;4.31;76.98;99375.91;1787480;79;21155;-80
2021/03/06 00:04:07;;;;;;;15.30;7.92;;;;;;;4.37;76.35;99374.20;1795694;79;21167;-81
2021/03/06 00:06:34;;;;;;;17.48;7.20;;;;;;;4.45;77.01;99368.24;1799789;79;21597;-80
2021/03/06 00:09:03;;;;;;;17.17;6.83;;;;;;;4.53;76.42;99367.41;1795563;79;21652;-79
2021/03/06 00:11:31;;;;;;;17.15;8.35;;;;;;;4.58;76.11;99372.59;1789980;79;21161;-80
2021/03/06 00:13:58;;;;;;;15.75;7.90;;;;;;;4.65;76.12;99382.05;1794098;79;21124;-80
2021/03/06 00:16:26;;;;;;;15.80;7.10;;;;;;;4.69;75.67;99378.62;1798168;79;21172;-79
2021/03/06 00:18:54;;;;;;;17.07;7.78;;;;;;;4.75;75.91;99388.09;1735351;80;21608;-80
2021/03/06 00:21:22;;;;;;;17.95;7.97;;;;;;;4.77;75.28;99385.09;1744666;79;21325;-81
2021/03/06 00:23:53;;;;;;;17.05;7.67;;;;;;;4.78;75.31;99388.97;1766393;81;22155;-80
2021/03/06 00:26:20;;;;;;;15.20;7.40;;;;;;;4.80;75.45;99382.53;1751822;80;21662;-80
2021/03/06 00:28:49;;;;;;;17.23;7.65;;;;;;;4.81;75.53;99380.81;1744129;79;21164;-80
2021/03/06 00:31:19;;;;;;;13.88;6.78;;;;;;;4.81;75.31;99390.67;1778744;80;21167;-80
2021/03/06 00:33:47;;;;;;;14.18;7.15;;;;;;;4.82;74.53;99380.82;1749036;79;21173;-80
2021/03/06 00:36:15;;;;;;;16.45;7.97;;;;;;;4.79;74.81;99378.22;1744262;80;21299;-81
2021/03/06 00:38:42;;;;;;;16.73;7.85;;;;;;;4.78;74.98;99384.25;1749478;79;21735;-80
2021/03/06 00:41:10;;;;;;;14.50;7.40;;;;;;;4.78;74.89;99384.25;1760153;81;21751;-80
2021/03/06 00:43:41;;;;;;;14.50;6.87;;;;;;;4.76;74.97;99393.69;1750595;80;22273;-79
2021/03/06 00:46:08;;;;;;;13.98;7.00;;;;;;;4.74;75.00;99396.69;1755557;81;21153;-81
2021/03/06 00:48:36;;;;;;;14.78;7.10;;;;;;;4.71;74.83;99398.80;1765018;79;21177;-80
2021/03/06 00:51:04;;;;;;;13.58;6.95;;;;;;;4.68;75.45;99401.82;1753192;81;21169;-79
2021/03/06 00:53:35;;;;;;;13.88;6.53;;;;;;;4.65;74.58;99395.35;1755422;80;21637;-78
2021/03/06 00:56:03;;;;;;;17.50;8.08;;;;;;;4.61;75.86;99401.34;1742745;81;21184;-80
2021/03/06 00:58:33;;;;;;;15.35;7.83;;;;;;;4.60;74.71;99404.36;1736851;81;21652;-80
2021/03/06 01:01:06;;;;;;;15.25;7.10;;;;;;;4.60;75.01;99406.09;1747534;79;21155;-80
2021/03/06 01:03:34;;;;;;;19.12;8.35;;;;;;;4.60;75.54;99409.52;1746789;79;21164;-80
2021/03/06 01:06:03;;;;;;;16.57;7.60;;;;;;;4.62;74.98;99409.52;1747576;81;21168;-80
2021/03/06 01:08:32;;;;;;;17.07;8.00;;;;;;;4.64;75.00;99418.12;1746007;79;22343;-79
2021/03/06 01:11:00;;;;;;;15.28;7.37;;;;;;;4.64;74.69;99425.84;1748041;79;21609;-80
2021/03/06 01:13:30;;;;;;;13.28;6.28;;;;;;;4.63;75.04;99417.23;1746932;81;21169;-80
2021/03/06 01:15:58;;;;;;;17.20;6.55;;;;;;;4.65;73.81;99425.83;1742676;79;21200;-80
2021/03/06 01:18:25;;;;;;;13.45;6.67;;;;;;;4.63;73.97;99423.67;1744597;81;22595;-79
2021/03/06 01:20:54;;;;;;;15.75;6.87;;;;;;;4.64;75.24;99420.69;1742682;79;21601;-80
2021/03/06 01:23:23;;;;;;;12.28;6.35;;;;;;;4.66;74.27;99424.13;1748517;81;21169;-80
2021/03/06 01:25:50;;;;;;;12.35;5.80;;;;;;;4.68;74.89;99425.84;1750139;80;21172;-81
2021/03/06 01:28:18;;;;;;;9.23;5.12;;;;;;;4.72;74.60;99426.73;1759288;80;22174;-80
2021/03/06 01:30:46;;;;;;;9.53;4.67;;;;;;;4.73;74.40;99423.28;1751285;79;21180;-79
2021/03/06 01:33:15;;;;;;;9.58;3.92;;;;;;;4.76;74.32;99438.77;1743500;79;21156;-79
2021/03/06 01:35:43;;;;;;;8.55;3.67;;;;;;;4.81;74.13;99439.63;1747564;80;21214;-81
2021/03/06 01:38:10;;;;;;;8.50;4.30;;;;;;;4.86;73.94;99446.10;1745589;81;21179;-81
2021/03/06 01:40:38;;;;;;;9.65;4.30;;;;;;;4.89;73.61;99447.38;1754838;81;21716;-80
2021/03/06 01:43:09;;;;;;;8.80;4.12;;;;;;;4.92;73.49;99456.42;1752350;81;21682;-80
2021/03/06 01:45:39;;;;;;;8.63;4.00;;;;;;;4.94;73.26;99458.14;1754090;81;21172;-79
2021/03/06 01:48:07;;;;;;;7.78;3.87;;;;;;;4.97;73.11;99456.88;1746336;81;21136;-79
2021/03/06 01:50:41;;;;;;;8.35;3.52;;;;;;;5.02;72.79;99450.88;1749566;81;21173;-81
2021/03/06 01:53:13;;;;;;;8.93;3.95;;;;;;;5.02;72.70;99462.04;1748294;81;21176;-80
2021/03/06 01:55:46;;;;;;;8.13;4.53;;;;;;;5.03;72.59;99456.02;1751303;81;21180;-80
2021/03/06 01:58:15;;;;;;;10.25;5.00;;;;;;;5.03;72.37;99468.05;1752647;81;21695;-79
2021/03/06 02:00:43;;;;;;;11.50;5.92;;;;;;;5.02;72.51;99468.92;1759785;81;21165;-79
2021/03/06 02:03:12;;;;;;;12.95;6.62;;;;;;;4.98;72.26;99466.31;1770205;81;21164;-79
2021/03/06 02:05:47;;;;;;;14.83;6.90;;;;;;;4.92;72.68;99478.33;1751367;81;21172;-79
2021/03/06 02:08:14;;;;;;;13.35;6.87;;;;;;;4.87;72.38;99486.02;1770909;81;21438;-78
2021/03/06 02:10:44;;;;;;;14.53;6.60;;;;;;;4.83;71.82;99483.42;1759025;81;21137;-78
2021/03/06 02:13:42;;;;;;;14.95;7.15;;;;;;;4.75;72.85;99489.83;1746462;81;21929;-80
2021/03/06 02:16:27;;;;;;;15.78;7.45;;;;;;;4.70;73.23;99491.11;1751944;81;21172;-79
2021/03/06 02:19:34;;;;;;;16.07;7.28;;;;;;;4.65;72.95;99492.78;1748313;81;21164;-81
2021/03/06 02:22:26;;;;;;;17.07;7.75;;;;;;;4.60;72.77;99493.64;1754242;81;21176;-78
2021/03/06 02:25:06;;;;;;;15.50;7.90;;;;;;;4.53;73.25;99495.30;1747115;81;21205;-80
2021/03/06 02:27:59;;;;;;;20.75;8.53;;;;;;;4.40;73.63;99499.52;1764062;81;21157;-79
2021/03/06 02:30:35;;;;;;;20.15;8.33;;;;;;;4.31;71.98;99496.45;1759527;81;21177;-80
2021/03/06 02:33:05;;;;;;;18.98;7.35;;;;;;;4.18;72.84;99497.23;1764073;81;21681;-78
2021/03/06 02:35:43;;;;;;;16.60;7.40;;;;;;;4.07;74.73;99501.00;1760741;81;21636;-78
2021/03/06 02:38:12;;;;;;;17.80;6.53;;;;;;;4.01;73.73;99503.96;1746766;81;21239;-79
2021/03/06 02:40:42;;;;;;;15.95;6.83;;;;;;;3.95;73.24;99511.20;1758323;81;22045;-78
2021/03/06 02:43:11;;;;;;;17.90;8.15;;;;;;;3.90;74.32;99516.71;1768626;81;21586;-78
2021/03/06 02:45:40;;;;;;;14.30;6.97;;;;;;;3.88;74.13;99514.55;1753559;81;21178;-79
2021/03/06 02:48:10;;;;;;;15.90;7.20;;;;;;;3.85;75.28;99524.40;1754036;81;21648;-79
2021/03/06 02:50:38;;;;;;;17.73;6.58;;;;;;;3.84;74.59;99532.09;1749449;81;21165;-80
2021/03/06 02:53:06;;;;;;;13.00;6.17;;;;;;;3.82;74.43;99535.97;1760687;81;21168;-80
2021/03/06 02:55:36;;;;;;;12.03;5.12;;;;;;;3.78;74.30;99545.36;1751004;81;21180;-79
2021/03/06 02:58:53;;;;;;;10.85;5.92;;;;;;;3.76;73.69;99548.34;1748211;81;21161;-80
2021/03/06 03:01:44;;;;;;;11.00;5.25;;;;;;;3.72;73.01;99550.84;1759264;81;22121;-80
2021/03/06 03:04:30;;;;;;;10.85;4.92;;;;;;;3.63;72.87;99559.77;1764067;81;21164;-80
2021/03/06 03:07:03;;;;;;;9.95;4.58;;;;;;;3.59;72.76;99562.30;1765713;81;21156;-78
2021/03/06 03:09:33;;;;;;;9.78;4.60;;;;;;;3.54;73.37;99563.09;1750143;81;21160;-79
2021/03/06 03:12:10;;;;;;;9.55;4.72;;;;;;;3.51;72.77;99566.92;1747927;81;21208;-79
2021/03/06 03:15:20;;;;;;;12.00;4.35;;;;;;;3.45;73.05;99576.72;1752600;81;21450;-78
2021/03/06 03:17:53;;;;;;;12.73;4.87;;;;;;;3.41;73.19;99585.67;1748554;81;21156;-77
2021/03/06 03:20:42;;;;;;;8.58;4.10;;;;;;;3.33;73.60;99582.57;1761668;81;21190;-78
2021/03/06 03:23:20;;;;;;;8.55;4.40;;;;;;;3.32;73.39;99589.86;1768372;81;21161;-78
2021/03/06 03:25:51;;;;;;;8.63;4.25;;;;;;;3.32;73.39;99591.55;1759174;81;21184;-80
2021/03/06 03:28:21;;;;;;;8.18;4.22;;;;;;;3.28;73.03;99588.49;1764033;81;21655;-80
2021/03/06 03:30:50;;;;;;;9.28;4.37;;;;;;;3.28;72.90;99586.81;1760162;81;21176;-77
2021/03/06 03:33:19;;;;;;;13.05;4.33;;;;;;;3.31;72.57;99593.25;1747328;81;21176;-79
2021/03/06 03:35:47;;;;;;;11.03;5.08;;;;;;;3.27;72.83;99601.77;1766578;81;21204;-81
2021/03/06 03:38:19;;;;;;;9.05;4.58;;;;;;;3.27;72.41;99612.05;1741240;81;21626;-77
2021/03/06 03:40:47;;;;;;;7.70;3.40;;;;;;;3.18;72.74;99618.34;1742344;81;21578;-80
2021/03/06 03:43:16;;;;;;;6.42;3.30;;;;;;;3.17;72.66;99623.06;1733070;81;21200;-78
2021/03/06 03:45:48;;;;;;;9.83;3.85;;;;;;;3.13;72.42;99617.02;1739013;81;21113;-79
2021/03/06 03:48:17;;;;;;;7.72;3.60;;;;;;;3.09;72.62;99620.39;1733192;81;21182;-79
2021/03/06 03:50:47;;;;;;;9.58;4.10;;;;;;;3.06;72.65;99628.03;1735238;81;21164;-78
2021/03/06 03:53:16;;;;;;;11.25;3.92;;;;;;;3.04;71.95;99624.59;1767745;80;21132;-80
2021/03/06 03:55:44;;;;;;;6.83;3.20;;;;;;;3.05;72.06;99623.76;1748060;81;21494;-78
2021/03/06 03:58:12;;;;;;;8.10;3.60;;;;;;;2.99;71.73;99624.53;1746588;81;21157;-79
2021/03/06 04:00:41;;;;;;;7.20;3.40;;;;;;;2.98;71.40;99627.95;1747345;81;21153;-79
2021/03/06 04:03:09;;;;;;;7.25;3.08;;;;;;;2.95;70.97;99634.32;1732291;81;21177;-81
2021/03/06 04:05:40;;;;;;;4.67;2.60;;;;;;;2.88;71.14;99623.50;1739163;81;21134;-79
2021/03/06 04:08:08;;;;;;;4.00;2.30;;;;;;;2.89;70.82;99633.38;1763218;81;21172;-80
2021/03/06 04:10:35;;;;;;;6.35;2.37;;;;;;;2.87;71.11;99635.92;1743745;81;21164;-80
2021/03/06 04:13:06;;;;;;;5.20;2.50;;;;;;;2.82;70.83;99664.94;1755437;81;21635;-78
2021/03/06 04:15:34;;;;;;;5.37;2.72;;;;;;;2.82;70.76;99670.08;1745017;81;21645;-78
2021/03/06 04:18:04;;;;;;;7.28;2.75;;;;;;;2.83;70.66;99666.25;1737113;81;21149;-79
2021/03/06 04:20:33;;;;;;;5.33;2.70;;;;;;;2.84;70.48;99667.96;1762811;81;21161;-81
2021/03/06 04:23:04;;;;;;;5.85;2.47;;;;;;;2.81;69.96;99671.78;1743193;81;21613;-80
2021/03/06 04:25:32;;;;;;;6.42;2.87;;;;;;;2.78;70.17;99671.72;1753159;81;21135;-80
2021/03/06 04:28:02;;;;;;;6.78;2.65;;;;;;;2.71;70.29;99674.63;1736866;81;21527;-78
2021/03/06 04:30:30;;;;;;;5.25;2.30;;;;;;;2.66;70.42;99671.53;1747658;81;21176;-79
2021/03/06 04:32:58;;;;;;;7.90;2.77;;;;;;;2.62;70.58;99690.30;1737161;81;21181;-79
2021/03/06 04:35:26;;;;;;;5.90;2.70;;;;;;;2.56;70.43;99690.63;1752607;81;21137;-81
2021/03/06 04:37:54;;;;;;;5.33;2.77;;;;;;;2.54;70.14;99695.30;1737528;81;21184;-80
2021/03/06 04:40:22;;;;;;;4.92;2.25;;;;;;;2.43;70.66;99696.41;1792087;79;21182;-81
2021/03/06 04:42:57;;;;;;;4.12;2.00;;;;;;;2.45;70.53;99702.44;1781189;79;21128;-79
2021/03/06 04:45:26;;;;;;;7.40;2.33;;;;;;;2.44;70.24;99704.97;1787537;79;21160;-79
2021/03/06 04:47:55;;;;;;;7.47;2.62;;;;;;;2.39;70.53;99706.18;1782569;79;21175;-81
2021/03/06 04:50:26;;;;;;;6.03;2.45;;;;;;;2.31;71.08;99703.91;1782169;79;21496;-78
2021/03/06 04:52:56;;;;;;;7.97;3.27;;;;;;;2.31;70.90;99715.45;1761114;80;21147;-77
2021/03/06 04:55:24;;;;;;;6.83;3.00;;;;;;;2.28;70.71;99719.23;1757495;81;21172;-79
2021/03/06 04:57:52;;;;;;;5.22;2.40;;;;;;;2.24;70.60;99728.98;1743467;80;21165;-78
2021/03/06 05:00:20;;;;;;;7.78;3.33;;;;;;;2.22;70.62;99720.40;1749507;81;21188;-78
2021/03/06 05:02:48;;;;;;;7.87;3.75;;;;;;;2.22;70.36;99719.12;1742655;81;21648;-78
2021/03/06 05:05:16;;;;;;;6.55;3.12;;;;;;;2.15;70.51;99717.72;1755224;79;21165;-77
2021/03/06 05:07:44;;;;;;;7.03;3.33;;;;;;;2.08;70.62;99714.58;1744506;79;21770;-81
2021/03/06 05:10:12;;;;;;;5.87;2.33;;;;;;;2.05;70.64;99715.83;1747170;80;21181;-79
2021/03/06 05:12:40;;;;;;;5.25;2.42;;;;;;;2.05;70.24;99722.62;1745577;80;21176;-80
2021/03/06 05:15:08;;;;;;;6.22;2.90;;;;;;;2.00;70.36;99725.11;1745569;80;21643;-80
2021/03/06 05:17:36;;;;;;;6.03;3.10;;;;;;;1.99;70.03;99731.09;1746739;80;21203;-80
2021/03/06 05:20:07;;;;;;;4.50;2.20;;;;;;;1.97;69.95;99734.05;1747004;81;21129;-79
2021/03/06 05:22:34;;;;;;;5.75;2.50;;;;;;;1.92;70.10;99742.05;1758851;81;21324;-79
2021/03/06 05:25:03;;;;;;;4.53;2.15;;;;;;;1.87;70.14;99740.69;1748800;79;21140;-80
2021/03/06 05:27:32;;;;;;;8.43;3.67;;;;;;;1.86;70.08;99750.91;1743070;81;21478;-80
2021/03/06 05:30:00;;;;;;;5.45;2.65;;;;;;;1.89;70.10;99755.69;1750008;81;21318;-79
2021/03/06 05:32:28;;;;;;;5.75;2.85;;;;;;;1.87;70.24;99766.33;1746777;81;21141;-80
2021/03/06 05:34:57;;;;;;;5.28;3.00;;;;;;;1.82;70.47;99770.48;1756963;79;21165;-78
2021/03/06 05:37:26;;;;;;;4.75;2.35;;;;;;;1.86;70.30;99783.81;1746799;80;21152;-80
2021/03/06 05:39:56;;;;;;;7.12;3.22;;;;;;;1.90;69.88;99784.75;1760738;80;21189;-79
2021/03/06 05:42:24;;;;;;;6.17;3.00;;;;;;;1.87;70.05;99795.81;1766977;80;21448;-81
2021/03/06 05:44:52;;;;;;;6.45;2.52;;;;;;;1.86;70.16;99804.33;1772312;78;21145;-81
2021/03/06 05:47:20;;;;;;;6.25;2.75;;;;;;;1.90;69.96;99811.67;1769272;78;21183;-81
2021/03/06 05:49:49;;;;;;;6.37;2.70;;;;;;;1.88;70.05;99817.19;1779582;80;21157;-79
2021/03/06 05:52:20;;;;;;;8.58;4.30;;;;;;;1.96;69.90;99829.33;1793852;80;21177;-80
2021/03/06 05:54:49;;;;;;;6.15;3.35;;;;;;;2.01;69.67;99828.17;1784624;80;21152;-78
2021/03/06 05:57:18;;;;;;;5.10;2.80;;;;;;;2.01;68.92;99829.45;1762554;78;21141;-80
2021/03/06 05:59:46;;;;;;;7.05;2.80;;;;;;;2.02;68.80;99828.59;1768320;80;21134;-80
2021/03/06 06:02:18;;;;;;;7.95;2.80;;;;;;;2.03;68.80;99841.00;1789905;80;21590;-80
2021/03/06 06:04:47;;;;;;;5.55;2.60;;;;;;;1.97;68.79;99849.03;1773166;80;21156;-80
2021/03/06 06:07:18;;;;;;;6.90;2.98;;;;;;;1.94;68.90;99854.50;1764830;80;21165;-80
2021/03/06 06:09:46;;;;;;;6.55;3.00;;;;;;;1.92;68.62;99860.02;1779386;80;21134;-79
2021/03/06 06:12:14;;;;;;;5.45;2.40;;;;;;;1.92;68.36;99858.30;1779701;80;21173;-80
2021/03/06 06:14:42;;;;;;;9.45;2.50;;;;;;;1.93;68.40;99870.70;1770847;80;21171;-80
2021/03/06 06:17:19;;;;;;;6.40;3.10;;;;;;;1.99;68.14;99875.58;1802692;76;32084;-77
2021/03/06 06:19:49;;;;;;;6.72;2.47;;;;;;;2.03;68.14;99879.08;1800044;79;21673;-79
2021/03/06 06:22:23;;;;;;;6.42;2.72;;;;;;;2.03;67.87;99883.31;1802576;79;21137;-78
2021/03/06 06:24:58;;;;;;;6.87;2.92;;;;;;;2.06;67.68;99892.38;1802788;78;21118;-77
2021/03/06 06:27:32;;;;;;;4.50;2.05;;;;;;;2.09;67.70;99906.14;1802021;79;21171;-78
2021/03/06 06:30:04;;;;;;;8.10;3.05;;;;;;;2.10;67.07;99914.27;1803587;79;21164;-77
2021/03/06 06:32:44;;;;;;;7.65;3.30;;;;;;;2.15;67.08;99922.09;1782738;79;21172;-76
2021/03/06 06:35:15;;;;;;;8.23;2.95;;;;;;;2.23;66.65;99917.98;1801674;79;21141;-77
2021/03/06 06:37:59;;;;;;;6.20;3.10;;;;;;;2.29;65.97;99926.20;1796861;78;21122;-76
2021/03/06 06:40:29;;;;;;;8.98;3.10;;;;;;;2.41;65.77;99934.20;1804976;78;21619;-82
2021/03/06 06:42:59;;;;;;;8.90;3.58;;;;;;;2.56;66.11;99937.06;1788542;79;21156;-81
2021/03/06 06:45:36;;;;;;;8.43;3.62;;;;;;;2.60;65.61;99948.27;1806039;79;21634;-81
2021/03/06 06:48:11;;;;;;;10.05;4.55;;;;;;;2.69;66.40;99945.03;1777601;79;21116;-79
2021/03/06 06:50:39;;;;;;;6.37;3.02;;;;;;;2.79;66.31;99949.09;1787269;79;21151;-81
2021/03/06 06:53:06;;;;;;;13.60;4.42;;;;;;;2.91;66.37;99948.47;1804187;79;21128;-81
2021/03/06 06:55:39;;;;;;;9.00;3.52;;;;;;;3.05;66.44;99960.72;1796809;78;21188;-81
2021/03/06 06:58:06;;;;;;;9.88;3.50;;;;;;;3.19;66.54;99960.13;1779287;79;21148;-81
2021/03/06 07:00:36;;;;;;;7.85;3.60;;;;;;;3.37;66.62;99964.73;1798231;79;21126;-78
2021/03/06 07:03:06;;;;;;;9.63;4.08;;;;;;;3.58;65.66;99969.41;1790225;79;21171;-79
2021/03/06 07:05:38;;;;;;;12.47;4.30;;;;;;;3.81;65.88;99974.48;1803956;78;21153;-78
2021/03/06 07:08:09;;;;;;;8.68;3.50;;;;;;;4.02;65.31;99976.52;1788623;79;21145;-77
2021/03/06 07:10:41;;;;;;;7.47;3.50;;;;;;;4.22;65.09;99984.14;1805420;79;21482;-79
2021/03/06 07:13:15;;;;;;;5.67;2.83;;;;;;;4.34;64.29;99990.75;1779940;79;21195;-78
2021/03/06 07:15:45;;;;;;;6.05;2.90;;;;;;;4.46;64.10;99996.92;1800677;78;22180;-79
2021/03/06 07:18:18;;;;;;;5.90;2.80;;;;;;;4.45;62.18;99998.61;1797509;78;21185;-83
2021/03/06 07:20:49;;;;;;;6.20;2.65;;;;;;;4.51;63.02;100006.84;1801645;78;21148;-79
2021/03/06 07:23:23;;;;;;;5.83;3.47;;;;;;;4.49;62.55;100007.25;1799386;78;21180;-79
2021/03/06 07:25:56;;;;;;;4.70;2.60;;;;;;;4.47;62.85;100014.95;1814991;78;21141;-79
2021/03/06 07:28:25;;;;;;;9.00;3.50;;;;;;;4.51;62.92;100011.57;1796814;78;21167;-80
2021/03/06 07:30:58;;;;;;;6.28;3.27;;;;;;;4.51;61.57;100022.30;1806345;78;21154;-79
2021/03/06 07:33:44;;;;;;;6.95;3.20;;;;;;;4.57;62.02;100025.81;1889150;74;24358;-79
2021/03/06 07:36:12;;;;;;;6.03;3.15;;;;;;;4.57;62.12;100039.98;1848760;77;21111;-79
2021/03/06 07:38:40;;;;;;;7.65;4.00;;;;;;;4.63;62.58;100043.50;1832940;75;21297;-78
2021/03/06 07:41:32;;;;;;;7.37;3.90;;;;;;;4.66;62.85;100040.55;1807852;77;21186;-80
2021/03/06 07:44:01;;;;;;;6.10;3.10;;;;;;;4.67;62.60;100046.56;1837046;76;21115;-80
2021/03/06 07:46:29;;;;;;;9.50;3.95;;;;;;;4.73;62.52;100049.22;1840861;77;21154;-80
2021/03/06 07:49:00;;;;;;;6.80;2.98;;;;;;;4.75;59.97;100056.11;1832943;75;21654;-81
2021/03/06 07:51:31;;;;;;;9.50;2.47;;;;;;;4.77;59.36;100061.30;1847235;77;21147;-78
2021/03/06 07:53:58;;;;;;;9.25;3.30;;;;;;;4.76;54.90;100057.00;1856264;75;22239;-80
2021/03/06 07:56:26;;;;;;;8.13;3.30;;;;;;;4.77;56.98;100060.90;1829324;76;21150;-81
2021/03/06 07:58:56;;;;;;;10.35;2.98;;;;;;;4.77;54.64;100059.61;1850689;75;21637;-79
2021/03/06 08:01:32;;;;;;;8.68;2.85;;;;;;;4.76;53.93;100070.75;1838357;77;21161;-80
2021/03/06 08:04:04;;;;;;;8.18;2.60;;;;;;;4.64;50.03;100068.00;1855192;77;21122;-80
2021/03/06 08:06:33;;;;;;;8.08;2.85;;;;;;;4.67;52.80;100077.47;1830902;77;21757;-80
2021/03/06 08:09:11;;;;;;;34.50;13.65;;;;;;;4.63;51.51;100082.14;1848970;77;21181;-81
2021/03/06 08:11:44;;;;;;;127.67;37.13;;;;;;;4.69;52.29;100089.95;1829754;76;21699;-80
2021/03/06 08:14:32;;;;;;;121.55;36.48;;;;;;;4.81;53.35;100098.28;1809667;78;23392;-79
2021/03/06 08:17:02;;;;;;;37.95;14.95;;;;;;;4.80;50.28;100105.16;1786111;79;22261;-79
2021/03/06 08:19:31;;;;;;;23.30;9.15;;;;;;;4.88;52.97;100112.56;1805187;79;21153;-81
2021/03/06 08:22:16;;;;;;;22.30;9.00;;;;;;;4.93;50.61;100108.75;1815951;79;21157;-79
2021/03/06 08:24:45;;;;;;;11.88;5.60;;;;;;;4.98;49.33;100112.27;1810377;79;21559;-80
2021/03/06 08:27:14;;;;;;;9.80;4.35;;;;;;;5.04;49.47;100115.37;1702477;83;21160;-81
2021/03/06 08:29:49;;;;;;;13.22;4.70;;;;;;;5.06;49.37;100114.96;1800259;79;21170;-80
2021/03/06 08:32:27;;;;;;;9.75;3.90;;;;;;;5.03;48.88;100117.05;1801550;79;21126;-81
2021/03/06 08:35:19;;;;;;;8.93;4.15;;;;;;;4.96;48.62;100121.27;1808185;78;21122;-79
2021/03/06 08:37:48;;;;;;;14.10;4.87;;;;;;;4.97;49.76;100120.84;1805832;79;21161;-79
2021/03/06 08:40:24;;;;;;;17.50;7.22;;;;;;;4.90;50.36;100123.76;1814591;79;21972;-79
2021/03/06 08:42:54;;;;;;;13.55;6.40;;;;;;;4.88;50.23;100130.60;1815106;79;21157;-78
2021/03/06 08:45:28;;;;;;;11.03;4.50;;;;;;;4.83;48.27;100132.23;1814671;79;21568;-79
2021/03/06 08:48:04;;;;;;;15.88;4.00;;;;;;;4.83;49.60;100130.95;1806838;79;21137;-79
2021/03/06 08:50:35;;;;;;;8.40;3.50;;;;;;;4.84;50.24;100135.27;1814868;79;21118;-81
2021/03/06 08:53:07;;;;;;;8.75;4.28;;;;;;;4.84;49.94;100132.70;1800394;79;21639;-78
2021/03/06 08:55:42;;;;;;;10.72;4.45;;;;;;;4.91;50.12;100135.78;1814999;78;21145;-80
2021/03/06 09:00:54;;;;;;;7.15;4.47;;;;;;;5.17;48.67;100139.16;1880792;74;22907;-77
2021/03/06 09:03:31;;;;;;;8.95;3.27;;;;;;;5.25;46.96;100142.73;1817210;78;22939;-80
2021/03/06 09:06:17;;;;;;;7.85;3.92;;;;;;;5.24;50.08;100151.30;1798385;80;21152;-80
2021/03/06 09:08:54;;;;;;;6.67;2.87;;;;;;;5.41;48.86;100148.06;1800736;79;22426;-80
2021/03/06 09:11:25;;;;;;;15.60;5.80;;;;;;;5.54;47.07;100144.80;1811130;79;21112;-80
2021/03/06 09:13:52;;;;;;;9.13;3.95;;;;;;;5.70;47.50;100151.00;1744041;81;21439;-81
2021/03/06 09:16:20;;;;;;;11.65;4.47;;;;;;;5.89;47.88;100163.27;1767365;81;21315;-80
2021/03/06 09:18:48;;;;;;;5.20;2.40;;;;;;;6.10;46.67;100151.46;1770126;81;21748;-81
2021/03/06 09:21:25;;;;;;;7.08;3.62;;;;;;;6.16;48.89;100159.27;1756104;81;21662;-81
2021/03/06 09:23:55;;;;;;;9.33;3.92;;;;;;;6.05;46.03;100165.63;1714895;83;21648;-79
2021/03/06 09:26:26;;;;;;;9.25;4.83;;;;;;;6.27;47.69;100173.16;1772116;81;21135;-80
2021/03/06 09:28:56;;;;;;;8.88;4.33;;;;;;;6.53;45.80;100169.52;1795359;79;21274;-80
2021/03/06 09:31:31;;;;;;;8.80;5.28;;;;;;;6.74;46.58;100169.23;1815940;78;21110;-80
2021/03/06 09:33:59;;;;;;;8.40;4.60;;;;;;;7.01;46.90;100173.75;1795128;79;21152;-80
2021/03/06 09:36:31;;;;;;;5.97;2.67;;;;;;;7.24;48.25;100173.02;1789109;79;21126;-80
2021/03/06 09:39:02;;;;;;;7.72;2.90;;;;;;;7.24;41.27;100177.78;1810977;78;21100;-80
2021/03/06 09:44:15;;;;;;;5.03;2.50;;;;;;;7.28;42.44;100179.94;1817556;78;22922;-79
2021/03/06 09:46:49;;;;;;;6.22;2.70;;;;;;;7.28;46.38;100179.53;1809951;79;21168;-81
2021/03/06 09:49:16;;;;;;;3.67;1.92;;;;;;;6.94;41.31;100183.20;1812323;79;21158;-81
2021/03/06 09:51:55;;;;;;;5.40;2.12;;;;;;;7.00;42.36;100190.54;1802745;79;21141;-81
2021/03/06 09:54:25;;;;;;;7.50;2.33;;;;;;;6.95;42.31;100187.93;1783548;79;21158;-80
2021/03/06 09:57:01;;;;;;;5.92;2.58;;;;;;;6.90;39.60;100187.02;1811844;79;21416;-78
2021/03/06 09:59:38;;;;;;;9.03;2.65;;;;;;;6.91;41.45;100190.91;1737728;82;21141;-84
2021/03/06 10:02:08;;;;;;;7.40;2.40;;;;;;;6.92;39.53;100193.06;1733894;82;21178;-80
2021/03/06 10:04:37;;;;;;;5.87;2.58;;;;;;;7.01;40.35;100195.73;1728920;82;21173;-80
2021/03/06 10:07:10;;;;;;;6.10;2.55;;;;;;;7.09;44.57;100190.61;1774882;81;21165;-80
2021/03/06 10:09:41;;;;;;;6.17;2.77;;;;;;;6.93;41.15;100203.42;1762928;81;21126;-80
2021/03/06 10:12:16;;;;;;;4.42;2.30;;;;;;;7.04;41.94;100201.34;1786749;79;21147;-79
2021/03/06 10:14:49;;;;;;;8.48;3.50;;;;;;;7.11;41.40;100208.30;1787685;79;21170;-81
2021/03/06 10:17:24;;;;;;;9.40;3.98;;;;;;;7.19;42.40;100203.17;1810477;78;21145;-80
2021/03/06 10:19:54;;;;;;;6.05;3.15;;;;;;;7.29;38.49;100213.58;1797209;79;21141;-80
2021/03/06 10:22:22;;;;;;;9.60;4.40;;;;;;;7.49;41.22;100211.54;1814950;79;21200;-80
2021/03/06 10:24:58;;;;;;;5.53;2.45;;;;;;;7.23;37.05;100220.45;1801515;79;21120;-80
2021/03/06 10:27:35;;;;;;;10.38;4.80;;;;;;;6.92;36.84;100215.93;1802932;79;21667;-79
2021/03/06 10:30:26;;;;;;;10.28;4.90;;;;;;;6.89;40.75;100215.89;1790887;79;21133;-82
2021/03/06 10:32:57;;;;;;;10.43;4.95;;;;;;;6.85;39.46;100218.45;1791653;79;21169;-82
2021/03/06 10:35:36;;;;;;;9.70;5.45;;;;;;;6.83;38.31;100224.89;1738774;82;21164;-80
2021/03/06 10:38:21;;;;;;;6.60;2.90;;;;;;;6.83;40.63;100231.79;1780470;79;21164;-80
2021/03/06 10:40:56;;;;;;;;;;;;;;;6.79;39.68;100224.42;1811176;79;21133;-80
2021/03/06 10:43:38;;;;;;;9.25;5.55;;;;;;;6.64;35.99;100229.02;1810417;79;20200;-80
2021/03/06 10:46:24;;;;;;;5.43;2.00;;;;;;;6.61;36.08;100229.02;1725985;82;21149;-80
2021/03/06 10:49:01;;;;;;;24.52;4.70;;;;;;;6.46;39.73;100229.72;1760525;81;21183;-81
2021/03/06 10:51:53;;;;;;;17.57;3.10;;;;;;;6.35;39.89;100233.93;1762238;81;21138;-81
2021/03/06 10:54:27;;;;;;;9.25;2.50;;;;;;;6.21;41.15;100217.40;1738484;81;21673;-82
2021/03/06 10:57:05;;;;;;;4.42;2.30;;;;;;;6.18;37.43;100234.59;1761225;81;21188;-80
2021/03/06 10:59:36;;;;;;;13.25;3.75;;;;;;;6.10;36.64;100232.35;1787669;79;21156;-80
2021/03/06 11:02:05;;;;;;;4.67;2.12;;;;;;;6.15;37.16;100236.30;1814219;79;21136;-81
2021/03/06 11:04:36;;;;;;;4.28;1.72;;;;;;;6.13;34.98;100227.23;1810955;79;21159;-81
2021/03/06 11:07:09;;;;;;;3.35;1.52;;;;;;;6.11;33.80;100228.94;1807294;79;21149;-80
2021/03/06 11:09:39;;;;;;;6.20;1.77;;;;;;;6.04;33.36;100227.13;1813263;79;21157;-81
2021/03/06 11:12:22;;;;;;;8.93;2.70;;;;;;;5.97;35.65;100227.48;1717764;82;21173;-81
2021/03/06 11:15:15;;;;;;;4.60;1.80;;;;;;;5.95;34.91;100230.48;1728189;82;21495;-80
2021/03/06 11:17:54;;;;;;;4.47;2.20;;;;;;;5.97;33.09;100222.76;1760356;81;21597;-81
2021/03/06 11:20:26;;;;;;;7.35;3.40;;;;;;;6.02;35.81;100217.20;1798947;79;21162;-81
2021/03/06 11:22:55;;;;;;;6.92;2.05;;;;;;;6.12;35.36;100219.04;1777375;79;21170;-81
2021/03/06 11:25:23;;;;;;;5.03;2.80;;;;;;;6.17;34.75;100216.53;1798400;79;21165;-80
2021/03/06 11:28:09;;;;;;;5.28;1.92;;;;;;;6.17;35.02;100218.67;1798177;79;21172;-80
2021/03/06 11:30:42;;;;;;;7.33;1.95;;;;;;;6.13;36.44;100220.78;1808226;79;21137;-81
2021/03/06 11:33:16;;;;;;;7.72;2.87;;;;;;;6.27;37.49;100216.20;1790778;79;21178;-78
2021/03/06 11:35:46;;;;;;;12.23;2.58;;;;;;;6.29;37.31;100211.92;1760719;81;21166;-78
2021/03/06 11:38:17;;;;;;;10.00;4.47;;;;;;;6.41;38.89;100214.61;1736071;81;21197;-80
2021/03/06 11:40:49;;;;;;;12.18;4.83;;;;;;;6.40;38.58;100214.16;1809318;79;21619;-80
2021/03/06 11:43:19;;;;;;;6.80;3.50;;;;;;;6.47;38.84;100212.09;1737579;81;21512;-80
2021/03/06 11:45:51;;;;;;;8.88;3.60;;;;;;;6.57;37.81;100216.48;1761626;81;21629;-80
2021/03/06 11:48:23;;;;;;;7.28;3.17;;;;;;;6.85;36.23;100220.59;1749462;82;21173;-80
2021/03/06 11:50:55;;;;;;;7.50;3.12;;;;;;;7.33;36.67;100205.41;1734467;81;21185;-77
2021/03/06 11:53:22;;;;;;;7.85;3.02;;;;;;;7.75;37.75;100211.66;1755941;81;21602;-78
2021/03/06 11:55:50;;;;;;;7.03;2.98;;;;;;;7.90;38.36;100209.58;1741335;82;21142;-78
2021/03/06 11:58:19;;;;;;;8.75;2.72;;;;;;;7.70;35.57;100210.77;1754693;81;21181;-81
2021/03/06 12:00:48;;;;;;;5.30;2.98;;;;;;;7.72;37.34;100207.34;1768149;81;21171;-81
2021/03/06 12:03:18;;;;;;;8.25;3.65;;;;;;;7.46;37.34;100214.98;1767446;81;21165;-81
2021/03/06 12:05:49;;;;;;;13.30;4.03;;;;;;;7.21;38.53;100213.11;1766741;81;21176;-80